createdAt,value
2023-11-12T00:00:28.421Z,100.00
2023-11-12T00:02:55.481Z,100.00
2023-11-12T00:05:25.196Z,99.40
2023-11-12T00:07:55.399Z,100.00
2023-11-12T00:10:23.340Z,100.00
2023-11-12T00:12:50.546Z,100.00
2023-11-12T00:15:17.489Z,100.00
2023-11-12T00:17:45.665Z,100.00
2023-11-12T00:20:14.808Z,100.00
2023-11-12T00:22:45.413Z,100.00
2023-11-12T00:25:15.336Z,100.00
2023-11-12T00:27:42.534Z,99.94
2023-11-12T00:30:11.013Z,100.00
2023-11-12T00:32:38.917Z,100.00
2023-11-12T00:35:11.214Z,99.42
2023-11-12T00:37:40.929Z,99.29
2023-11-12T00:40:09.276Z,98.80
2023-11-12T00:42:40.420Z,99.53
2023-11-12T00:45:10.693Z,99.50
2023-11-12T00:47:37.714Z,100.00
2023-11-12T00:50:06.095Z,100.00
2023-11-12T00:52:38.465Z,100.00
2023-11-12T00:55:08.098Z,100.00
2023-11-12T00:57:36.114Z,100.00
2023-11-12T01:00:07.291Z,100.00
2023-11-12T01:02:37.061Z,100.00
2023-11-12T01:05:06.140Z,100.00
2023-11-12T01:07:37.337Z,99.99
2023-11-12T01:10:06.064Z,99.79
2023-11-12T01:12:33.334Z,100.00
2023-11-12T01:15:03.048Z,100.00
2023-11-12T01:17:30.248Z,100.00
2023-11-12T01:20:01.751Z,100.00
2023-11-12T01:22:31.275Z,100.00
2023-11-12T01:24:58.579Z,100.00
2023-11-12T01:27:25.540Z,100.00
2023-11-12T01:29:52.734Z,100.00
2023-11-12T01:32:21.956Z,100.00
2023-11-12T01:34:49.618Z,100.00
2023-11-12T01:37:16.954Z,100.00
2023-11-12T01:39:49.805Z,100.00
2023-11-12T01:42:20.953Z,100.00
2023-11-12T01:44:48.577Z,100.00
2023-11-12T01:47:17.466Z,100.00
2023-11-12T01:49:44.838Z,100.00
2023-11-12T01:52:15.570Z,100.00
2023-11-12T01:54:42.706Z,100.00
2023-11-12T01:57:10.199Z,100.00
2023-11-12T01:59:37.328Z,100.00
2023-11-12T02:02:07.299Z,100.00
2023-11-12T02:04:36.834Z,100.00
2023-11-12T02:07:03.815Z,100.00
2023-11-12T02:09:31.088Z,100.00
2023-11-12T02:11:58.584Z,100.00
2023-11-12T02:14:27.061Z,100.00
2023-11-12T02:16:54.277Z,100.00
2023-11-12T02:19:30.162Z,100.00
2023-11-12T02:22:03.599Z,100.00
2023-11-12T02:24:33.181Z,100.00
2023-11-12T02:27:02.418Z,100.00
2023-11-12T02:29:34.391Z,100.00
2023-11-12T02:32:01.330Z,100.00
2023-11-12T02:34:31.146Z,100.00
2023-11-12T02:37:01.520Z,100.00
2023-11-12T02:39:31.493Z,100.00
2023-11-12T02:42:03.531Z,100.00
2023-11-12T02:44:30.532Z,100.00
2023-11-12T02:46:57.608Z,100.00
2023-11-12T02:49:40.278Z,100.00
2023-11-12T02:52:07.998Z,100.00
2023-11-12T02:54:37.350Z,100.00
2023-11-12T02:57:04.613Z,100.00
2023-11-12T02:59:32.418Z,100.00
2023-11-12T03:02:01.754Z,100.00
2023-11-12T03:04:31.420Z,100.00
2023-11-12T03:06:58.612Z,100.00
2023-11-12T03:09:26.442Z,100.00
2023-11-12T03:11:54.886Z,100.00
2023-11-12T03:14:22.922Z,100.00
2023-11-12T03:16:52.284Z,100.00
2023-11-12T03:19:19.601Z,100.00
2023-11-12T03:21:54.090Z,100.00
2023-11-12T03:24:21.532Z,100.00
2023-11-12T03:26:51.478Z,100.00
2023-11-12T03:29:18.657Z,100.00
2023-11-12T03:31:49.733Z,100.00
2023-11-12T03:34:21.255Z,100.00
2023-11-12T03:36:48.789Z,100.00
2023-11-12T03:39:20.602Z,100.00
2023-11-12T03:41:47.724Z,100.00
2023-11-12T03:44:18.014Z,100.00
2023-11-12T03:46:45.439Z,100.00
2023-11-12T03:49:13.049Z,100.00
2023-11-12T03:51:40.191Z,100.00
2023-11-12T03:54:07.661Z,100.00
2023-11-12T03:56:34.660Z,100.00
2023-11-12T03:59:01.564Z,100.00
2023-11-12T04:01:31.088Z,100.00
2023-11-12T04:04:00.600Z,100.00
2023-11-12T04:06:33.044Z,100.00
2023-11-12T04:09:00.165Z,100.00
2023-11-12T04:11:27.478Z,100.00
2023-11-12T04:13:54.492Z,100.00
2023-11-12T04:16:21.388Z,100.00
2023-11-12T04:18:50.927Z,100.00
2023-11-12T04:21:18.136Z,100.00
2023-11-12T04:23:47.743Z,100.00
2023-11-12T04:26:15.369Z,100.00
2023-11-12T04:28:45.025Z,100.00
2023-11-12T04:31:14.354Z,100.00
2023-11-12T04:33:43.832Z,100.00
2023-11-12T04:36:14.122Z,100.00
2023-11-12T04:38:41.249Z,100.00
2023-11-12T04:41:13.067Z,100.00
2023-11-12T04:43:43.625Z,100.00
2023-11-12T04:46:12.331Z,100.00
2023-11-12T04:48:42.440Z,100.00
2023-11-12T04:51:10.069Z,100.00
2023-11-12T04:53:41.272Z,100.00
2023-11-12T04:56:12.587Z,100.00
2023-11-12T04:58:42.080Z,100.00
2023-11-12T05:01:09.000Z,100.00
2023-11-12T05:03:36.339Z,100.00
2023-11-12T05:06:05.100Z,100.00
2023-11-12T05:08:32.652Z,100.00
2023-11-12T05:10:59.682Z,100.00
2023-11-12T05:13:27.120Z,100.00
2023-11-12T05:15:54.590Z,100.00
2023-11-12T05:18:22.584Z,100.00
2023-11-12T05:20:49.841Z,100.00
2023-11-12T05:23:19.473Z,100.00
2023-11-12T05:25:52.444Z,100.00
2023-11-12T05:28:20.096Z,100.00
2023-11-12T05:30:47.671Z,100.00
2023-11-12T05:33:17.809Z,100.00
2023-11-12T05:35:47.661Z,100.00
2023-11-12T05:38:14.809Z,100.00
2023-11-12T05:40:42.383Z,100.00
2023-11-12T05:43:09.677Z,100.00
2023-11-12T05:45:39.287Z,100.00
2023-11-12T05:48:11.185Z,100.00
2023-11-12T05:50:39.839Z,100.00
2023-11-12T05:53:06.867Z,100.00
2023-11-12T05:55:33.879Z,100.00
2023-11-12T05:58:01.163Z,100.00
2023-11-12T06:00:28.224Z,100.00
2023-11-12T06:02:58.613Z,100.00
2023-11-12T06:05:25.945Z,100.00
2023-11-12T06:07:53.032Z,100.00
2023-11-12T06:10:19.934Z,100.00
2023-11-12T06:12:47.256Z,100.00
2023-11-12T06:15:14.363Z,100.00
2023-11-12T06:17:41.575Z,100.00
2023-11-12T06:20:09.403Z,100.00
2023-11-12T06:22:36.464Z,100.00
2023-11-12T06:25:03.957Z,100.00
2023-11-12T06:27:36.919Z,100.00
2023-11-12T06:30:04.723Z,100.00
2023-11-12T06:32:31.722Z,100.00
2023-11-12T06:34:59.128Z,100.00
2023-11-12T06:37:26.514Z,100.00
2023-11-12T06:39:53.868Z,100.00
2023-11-12T06:42:22.209Z,100.00
2023-11-12T06:44:49.366Z,100.00
2023-11-12T06:47:17.086Z,100.00
2023-11-12T06:49:44.850Z,100.00
2023-11-12T06:52:12.151Z,100.00
2023-11-12T06:54:40.549Z,100.00
2023-11-12T06:57:09.962Z,100.00
2023-11-12T06:59:37.134Z,100.00
2023-11-12T07:02:04.606Z,100.00
2023-11-12T07:04:34.410Z,100.00
2023-11-12T07:07:09.563Z,100.00
2023-11-12T07:09:42.534Z,100.00
2023-11-12T07:12:11.975Z,100.00
2023-11-12T07:14:41.524Z,100.00
2023-11-12T07:17:09.126Z,100.00
2023-11-12T07:19:37.677Z,100.00
2023-11-12T07:22:05.689Z,100.00
2023-11-12T07:24:36.908Z,100.00
2023-11-12T07:27:07.089Z,100.00
2023-11-12T07:29:38.943Z,100.00
2023-11-12T07:32:06.618Z,100.00
2023-11-12T07:34:34.312Z,100.00
2023-11-12T07:37:01.431Z,100.00
2023-11-12T07:39:29.841Z,100.00
2023-11-12T07:41:56.987Z,100.00
2023-11-12T07:44:26.459Z,100.00
2023-11-12T07:46:54.831Z,100.00
2023-11-12T07:49:22.055Z,100.00
2023-11-12T07:51:51.110Z,100.00
2023-11-12T07:54:19.008Z,100.00
2023-11-12T07:56:46.194Z,100.00
2023-11-12T07:59:13.392Z,100.00
2023-11-12T08:01:43.199Z,100.00
2023-11-12T08:04:10.584Z,100.00
2023-11-12T08:06:37.970Z,100.00
2023-11-12T08:09:09.198Z,100.00
2023-11-12T08:11:45.828Z,100.00
2023-11-12T08:14:12.811Z,100.00
2023-11-12T08:16:44.486Z,100.00
2023-11-12T08:19:12.130Z,100.00
2023-11-12T08:21:39.134Z,100.00
2023-11-12T08:24:09.613Z,100.00
2023-11-12T08:26:40.136Z,100.00
2023-11-12T08:29:11.708Z,100.00
2023-11-12T08:31:38.921Z,100.00
2023-11-12T08:34:06.944Z,100.00
2023-11-12T08:36:37.171Z,100.00
2023-11-12T08:39:06.184Z,100.00
2023-11-12T08:41:33.704Z,100.00
2023-11-12T08:44:00.711Z,100.00
2023-11-12T08:46:30.180Z,100.00
2023-11-12T08:49:00.519Z,100.00
2023-11-12T08:51:32.929Z,100.00
2023-11-12T08:54:01.613Z,100.00
2023-11-12T08:56:34.102Z,100.00
2023-11-12T08:59:04.436Z,100.00
2023-11-12T09:01:38.061Z,100.00
2023-11-12T09:04:05.365Z,100.00
2023-11-12T09:06:32.604Z,100.00
2023-11-12T09:08:59.657Z,100.00
2023-11-12T09:11:29.106Z,100.00
2023-11-12T09:13:56.500Z,100.00
2023-11-12T09:16:23.624Z,100.00
2023-11-12T09:18:51.037Z,100.00
2023-11-12T09:21:21.748Z,100.00
2023-11-12T09:23:49.694Z,99.66
2023-11-12T09:26:26.897Z,100.00
2023-11-12T09:28:56.504Z,99.92
2023-11-12T09:31:27.317Z,99.15
2023-11-12T09:33:58.443Z,100.00
2023-11-12T09:36:25.610Z,100.00
2023-11-12T09:38:52.824Z,99.47
2023-11-12T09:41:24.176Z,93.24
2023-11-12T09:43:53.416Z,80.94
2023-11-12T09:46:22.260Z,74.95
2023-11-12T09:48:53.375Z,77.89
2023-11-12T09:51:22.050Z,77.66
2023-11-12T09:53:51.721Z,80.15
2023-11-12T09:56:25.393Z,79.47
2023-11-12T09:58:53.873Z,81.14
2023-11-12T10:01:21.622Z,81.48
2023-11-12T10:03:50.522Z,82.66
2023-11-12T10:06:26.584Z,84.87
2023-11-12T10:08:53.645Z,84.25
2023-11-12T10:11:25.613Z,84.20
2023-11-12T10:13:53.206Z,78.54
2023-11-12T10:16:33.890Z,76.73
2023-11-12T10:19:16.742Z,81.30
2023-11-12T10:22:06.931Z,78.71
2023-11-12T10:24:47.074Z,79.58
2023-11-12T10:27:17.147Z,79.47
2023-11-12T10:29:49.023Z,77.14
2023-11-12T10:32:26.784Z,79.35
2023-11-12T10:34:56.739Z,84.15
2023-11-12T10:37:24.262Z,86.02
2023-11-12T10:39:51.408Z,84.60
2023-11-12T10:42:25.771Z,82.87
2023-11-12T10:45:00.707Z,78.02
2023-11-12T10:47:35.280Z,77.27
2023-11-12T10:50:04.447Z,69.94
2023-11-12T10:52:32.231Z,64.47
2023-11-12T10:55:00.520Z,60.51
2023-11-12T10:57:27.919Z,59.79
2023-11-12T10:59:56.256Z,59.26
2023-11-12T11:02:29.972Z,56.87
2023-11-12T11:05:00.828Z,58.49
2023-11-12T11:07:28.008Z,52.56
2023-11-12T11:09:55.432Z,48.69
2023-11-12T11:12:23.602Z,48.34
2023-11-12T11:14:50.655Z,50.24
2023-11-12T11:17:39.919Z,56.17
2023-11-12T11:20:13.092Z,62.20
2023-11-12T11:22:40.448Z,61.58
2023-11-12T11:25:31.137Z,63.25
2023-11-12T11:28:20.916Z,62.64
2023-11-12T11:31:26.765Z,64.58
2023-11-12T11:33:56.301Z,67.51
2023-11-12T11:36:24.057Z,70.18
2023-11-12T11:39:26.515Z,71.74
2023-11-12T11:41:53.643Z,73.10
2023-11-12T11:44:42.608Z,73.32
2023-11-12T11:47:24.650Z,74.96
2023-11-12T11:49:59.844Z,76.24
2023-11-12T11:52:29.744Z,76.11
2023-11-12T11:55:08.330Z,75.51
2023-11-12T11:57:53.955Z,75.39
2023-11-12T12:00:26.667Z,73.58
2023-11-12T12:02:56.192Z,73.40
2023-11-12T12:05:32.354Z,73.83
2023-11-12T12:08:04.954Z,73.33
2023-11-12T12:10:35.793Z,73.80
2023-11-12T12:13:04.054Z,72.44
2023-11-12T12:15:31.413Z,73.24
2023-11-12T12:17:59.164Z,71.71
2023-11-12T12:20:40.149Z,71.88
2023-11-12T12:23:08.165Z,72.58
2023-11-12T12:25:51.387Z,74.46
2023-11-12T12:28:21.649Z,74.61
2023-11-12T12:30:53.370Z,75.65
2023-11-12T12:33:25.565Z,77.72
2023-11-12T12:35:59.635Z,77.79
2023-11-12T12:38:27.398Z,76.57
2023-11-12T12:41:10.578Z,77.12
2023-11-12T12:43:51.872Z,67.98
2023-11-12T12:46:23.553Z,64.96
2023-11-12T12:48:59.562Z,61.06
2023-11-12T12:51:26.770Z,59.52
2023-11-12T12:53:55.695Z,59.96
2023-11-12T12:56:22.964Z,62.02
2023-11-12T12:58:52.098Z,64.47
2023-11-12T13:01:22.104Z,67.37
2023-11-12T13:03:49.660Z,69.04
2023-11-12T13:06:20.175Z,71.70
2023-11-12T13:09:18.303Z,74.16
2023-11-12T13:11:49.849Z,74.26
2023-11-12T13:14:20.804Z,74.11
2023-11-12T13:16:48.277Z,74.71
2023-11-12T13:19:24.241Z,74.63
2023-11-12T13:21:57.312Z,75.26
2023-11-12T13:24:30.380Z,75.00
2023-11-12T13:26:59.792Z,74.60
2023-11-12T13:29:29.038Z,75.51
2023-11-12T13:32:00.519Z,77.99
2023-11-12T13:34:34.036Z,78.73
2023-11-12T13:37:03.759Z,81.58
2023-11-12T13:39:33.379Z,80.00
2023-11-12T13:42:04.118Z,80.64
2023-11-12T13:44:35.599Z,82.16
2023-11-12T13:47:02.494Z,80.87
2023-11-12T13:49:29.960Z,80.63
2023-11-12T13:52:04.102Z,81.87
2023-11-12T13:54:31.384Z,81.75
2023-11-12T13:57:00.397Z,80.69
2023-11-12T13:59:29.281Z,80.53
2023-11-12T14:01:57.657Z,80.82
2023-11-12T14:04:30.926Z,78.56
2023-11-12T14:07:00.887Z,78.96
2023-11-12T14:09:31.052Z,80.32
2023-11-12T14:11:58.369Z,79.53
2023-11-12T14:14:29.091Z,79.99
2023-11-12T14:16:56.694Z,80.05
2023-11-12T14:19:27.128Z,80.70
2023-11-12T14:21:57.169Z,82.69
2023-11-12T14:24:26.815Z,83.56
2023-11-12T14:26:58.879Z,82.92
2023-11-12T14:29:31.036Z,81.34
2023-11-12T14:31:59.669Z,80.07
2023-11-12T14:34:29.945Z,82.10
2023-11-12T14:36:57.387Z,82.53
2023-11-12T14:39:29.487Z,82.76
2023-11-12T14:41:56.558Z,84.80
2023-11-12T14:44:27.961Z,85.59
2023-11-12T14:47:07.969Z,84.92
2023-11-12T14:49:42.530Z,86.84
2023-11-12T14:52:17.098Z,87.96
2023-11-12T14:54:49.238Z,87.84
2023-11-12T14:57:18.857Z,87.54
2023-11-12T14:59:57.743Z,89.49
2023-11-12T15:02:24.824Z,89.73
2023-11-12T15:04:52.288Z,89.15
2023-11-12T15:07:19.900Z,89.24
2023-11-12T15:09:46.924Z,88.81
2023-11-12T15:12:17.192Z,91.00
2023-11-12T15:14:44.652Z,92.22
2023-11-12T15:17:11.922Z,91.01
2023-11-12T15:19:58.126Z,90.31
2023-11-12T15:22:27.553Z,90.52
2023-11-12T15:24:59.505Z,90.58
2023-11-12T15:27:28.784Z,91.13
2023-11-12T15:29:55.826Z,90.63
2023-11-12T15:32:22.773Z,89.89
2023-11-12T15:34:49.987Z,90.07
2023-11-12T15:37:18.105Z,91.20
2023-11-12T15:39:45.771Z,91.34
2023-11-12T15:42:13.496Z,90.67
2023-11-12T15:44:40.706Z,91.53
2023-11-12T15:47:10.417Z,91.36
2023-11-12T15:49:39.710Z,92.84
2023-11-12T15:52:07.039Z,93.38
2023-11-12T15:54:35.033Z,93.44
2023-11-12T15:57:04.581Z,92.13
2023-11-12T15:59:31.917Z,92.36
2023-11-12T16:01:59.040Z,94.06
2023-11-12T16:04:26.132Z,93.20
2023-11-12T16:06:55.473Z,93.06
2023-11-12T16:09:22.408Z,93.89
2023-11-12T16:11:49.326Z,94.02
2023-11-12T16:14:16.505Z,94.75
2023-11-12T16:16:45.279Z,94.54
2023-11-12T16:19:17.572Z,94.38
2023-11-12T16:21:48.800Z,93.25
2023-11-12T16:24:17.066Z,94.94
2023-11-12T16:26:44.710Z,96.41
2023-11-12T16:29:12.393Z,97.89
2023-11-12T16:31:39.508Z,98.83
2023-11-12T16:34:09.797Z,98.52
2023-11-12T16:36:36.824Z,97.44
2023-11-12T16:39:04.478Z,96.86
2023-11-12T16:41:34.476Z,98.10
2023-11-12T16:44:04.836Z,98.65
2023-11-12T16:46:33.234Z,100.00
2023-11-12T16:49:00.447Z,100.00
2023-11-12T16:51:27.663Z,100.00
2023-11-12T16:53:55.418Z,100.00
2023-11-12T16:56:24.704Z,100.00
2023-11-12T16:58:52.019Z,100.00
2023-11-12T17:01:19.723Z,100.00
2023-11-12T17:03:48.039Z,100.00
2023-11-12T17:06:18.201Z,100.00
2023-11-12T17:08:45.242Z,100.00
2023-11-12T17:11:12.161Z,100.00
2023-11-12T17:13:39.940Z,100.00
2023-11-12T17:16:08.009Z,100.00
2023-11-12T17:18:35.196Z,100.00
2023-11-12T17:21:02.080Z,100.00
2023-11-12T17:23:31.538Z,100.00
2023-11-12T17:25:58.689Z,100.00
2023-11-12T17:28:25.700Z,100.00
2023-11-12T17:30:56.037Z,100.00
2023-11-12T17:33:23.569Z,100.00
2023-11-12T17:35:50.634Z,100.00
2023-11-12T17:38:17.550Z,100.00
2023-11-12T17:40:47.754Z,100.00
2023-11-12T17:43:14.776Z,100.00
2023-11-12T17:45:45.476Z,100.00
2023-11-12T17:48:18.121Z,100.00
2023-11-12T17:50:47.561Z,100.00
2023-11-12T17:53:22.154Z,100.00
2023-11-12T17:55:49.699Z,100.00
2023-11-12T17:58:20.420Z,100.00
2023-11-12T18:00:52.228Z,100.00
2023-11-12T18:03:23.284Z,100.00
2023-11-12T18:05:50.418Z,100.00
2023-11-12T18:08:19.986Z,100.00
2023-11-12T18:10:47.392Z,100.00
2023-11-12T18:13:16.701Z,100.00
2023-11-12T18:15:46.245Z,100.00
2023-11-12T18:18:13.953Z,100.00
2023-11-12T18:20:45.948Z,100.00
2023-11-12T18:23:15.625Z,100.00
2023-11-12T18:25:45.578Z,99.46
2023-11-12T18:28:12.627Z,98.66
2023-11-12T18:30:48.461Z,99.26
2023-11-12T18:33:17.113Z,99.25
2023-11-12T18:35:48.650Z,100.00
2023-11-12T18:38:15.907Z,98.31
2023-11-12T18:40:42.824Z,98.26
2023-11-12T18:43:12.676Z,100.00
2023-11-12T18:45:42.221Z,100.00
2023-11-12T18:48:09.579Z,99.44
2023-11-12T18:50:39.444Z,99.33
2023-11-12T18:53:09.151Z,98.65
2023-11-12T18:55:36.479Z,98.74
2023-11-12T18:58:06.706Z,98.93
2023-11-12T19:00:33.812Z,98.02
2023-11-12T19:03:01.154Z,97.85
2023-11-12T19:05:28.197Z,98.21
2023-11-12T19:07:55.176Z,97.76
2023-11-12T19:10:26.947Z,97.29
2023-11-12T19:12:55.445Z,97.86
2023-11-12T19:15:27.842Z,98.57
2023-11-12T19:17:55.790Z,97.75
2023-11-12T19:20:28.198Z,95.94
2023-11-12T19:22:55.317Z,97.32
2023-11-12T19:25:25.486Z,96.70
2023-11-12T19:27:55.984Z,96.61
2023-11-12T19:30:24.416Z,97.46
2023-11-12T19:32:54.967Z,98.56
2023-11-12T19:35:22.353Z,99.12
2023-11-12T19:37:49.505Z,98.98
2023-11-12T19:40:18.829Z,98.96
2023-11-12T19:42:53.551Z,99.16
2023-11-12T19:45:21.322Z,99.09
2023-11-12T19:47:53.155Z,98.93
2023-11-12T19:50:24.250Z,99.13
2023-11-12T19:52:54.124Z,98.57
2023-11-12T19:55:22.494Z,99.27
2023-11-12T19:57:53.731Z,98.56
2023-11-12T20:00:23.986Z,97.98
2023-11-12T20:02:55.950Z,97.60
2023-11-12T20:05:23.167Z,98.30
2023-11-12T20:07:52.474Z,97.89
2023-11-12T20:10:22.102Z,97.87
2023-11-12T20:12:51.147Z,96.87
2023-11-12T20:15:21.825Z,97.64
2023-11-12T20:17:51.112Z,96.80
2023-11-12T20:20:21.542Z,98.21
2023-11-12T20:22:51.750Z,99.27
2023-11-12T20:25:25.664Z,98.80
2023-11-12T20:27:55.869Z,98.96
2023-11-12T20:30:23.006Z,99.00
2023-11-12T20:32:49.926Z,99.17
2023-11-12T20:35:19.098Z,98.58
2023-11-12T20:37:48.669Z,99.02
2023-11-12T20:40:18.186Z,99.09
2023-11-12T20:42:46.566Z,97.89
2023-11-12T20:45:18.590Z,97.84
2023-11-12T20:47:53.663Z,99.33
2023-11-12T20:50:26.325Z,98.86
2023-11-12T20:52:57.521Z,98.45
2023-11-12T20:55:29.104Z,97.67
2023-11-12T20:57:56.309Z,97.91
2023-11-12T21:00:25.308Z,97.79
2023-11-12T21:02:57.522Z,97.77
2023-11-12T21:05:30.458Z,98.80
2023-11-12T21:08:07.525Z,100.00
2023-11-12T21:10:36.914Z,99.63
2023-11-12T21:13:06.532Z,99.89
2023-11-12T21:15:36.347Z,98.97
2023-11-12T21:18:05.539Z,98.20
2023-11-12T21:20:35.645Z,97.47
2023-11-12T21:23:05.104Z,98.70
2023-11-12T21:25:33.976Z,98.39
2023-11-12T21:28:03.583Z,98.12
2023-11-12T21:30:31.097Z,99.00
2023-11-12T21:32:59.142Z,99.37
2023-11-12T21:35:27.739Z,100.00
2023-11-12T21:37:58.627Z,100.00
2023-11-12T21:40:31.652Z,100.00
2023-11-12T21:43:01.799Z,100.00
2023-11-12T21:45:31.152Z,99.83
2023-11-12T21:47:58.109Z,100.00
2023-11-12T21:50:25.565Z,100.00
2023-11-12T21:52:53.222Z,99.74
2023-11-12T21:55:21.633Z,99.81
2023-11-12T21:57:51.360Z,99.06
2023-11-12T22:00:21.792Z,100.00
2023-11-12T22:02:48.750Z,100.00
2023-11-12T22:05:18.550Z,100.00
2023-11-12T22:07:52.351Z,100.00
2023-11-12T22:10:22.288Z,100.00
2023-11-12T22:12:52.220Z,99.56
2023-11-12T22:15:20.105Z,100.00
2023-11-12T22:17:54.284Z,99.44
2023-11-12T22:20:21.743Z,100.00
2023-11-12T22:22:51.252Z,100.00
2023-11-12T22:25:18.273Z,100.00
2023-11-12T22:27:48.033Z,100.00
2023-11-12T22:30:17.654Z,100.00
2023-11-12T22:32:53.269Z,100.00
2023-11-12T22:35:20.470Z,100.00
2023-11-12T22:37:50.177Z,100.00
2023-11-12T22:40:19.214Z,100.00
2023-11-12T22:42:50.267Z,100.00
2023-11-12T22:45:17.624Z,100.00
2023-11-12T22:47:45.667Z,100.00
2023-11-12T22:50:17.919Z,100.00
2023-11-12T22:52:44.839Z,100.00
2023-11-12T22:55:12.615Z,100.00
2023-11-12T22:57:41.216Z,100.00
2023-11-12T23:00:40.370Z,100.00
2023-11-12T23:03:21.701Z,100.00
2023-11-12T23:05:50.161Z,100.00
2023-11-12T23:08:20.956Z,100.00
2023-11-12T23:10:49.799Z,100.00
2023-11-12T23:13:20.765Z,100.00
2023-11-12T23:15:47.971Z,100.00
2023-11-12T23:18:18.831Z,100.00
2023-11-12T23:20:52.423Z,100.00
2023-11-12T23:23:26.438Z,100.00
2023-11-12T23:25:54.105Z,100.00
2023-11-12T23:28:26.500Z,100.00
2023-11-12T23:30:54.318Z,100.00
2023-11-12T23:33:21.740Z,100.00
2023-11-12T23:35:49.148Z,100.00
2023-11-12T23:38:18.593Z,100.00
2023-11-12T23:40:48.526Z,100.00
2023-11-12T23:43:15.518Z,100.00
2023-11-12T23:45:46.219Z,100.00
2023-11-12T23:48:14.252Z,100.00
2023-11-12T23:50:46.720Z,100.00
2023-11-12T23:53:13.749Z,100.00
2023-11-12T23:55:40.810Z,100.00
2023-11-12T23:58:10.922Z,100.00
